Time;durP1;ratioP1;P1;durP2;ratioP2;P2;SDS_P1;SDS_P2;PMS_P1;PMS_P2;Temp;Humidity;BMP_temperature;BMP_pressure;BME280_temperature;BME280_humidity;BME280_pressure;Samples;Min_cycle;Max_cycle;Signal;HPM_P1;HPM_P2
2023/03/29 00:04:34;;;;;;;1.93;1.23;;;17.60;64.00;;;;;;10462207;28;20114;-24
2023/03/29 00:09:37;;;;;;;5.88;1.50;;;17.50;69.40;;;;;;10461828;28;20049;-24
2023/03/29 00:14:39;;;;;;;7.05;1.95;;;17.40;71.40;;;;;;10449076;28;20053;-24
2023/03/29 00:19:44;;;;;;;2.53;1.60;;;17.40;71.00;;;;;;10447708;28;20045;-24
2023/03/29 00:24:47;;;;;;;3.63;1.48;;;17.30;70.50;;;;;;10450708;28;20493;-24
2023/03/29 00:29:49;;;;;;;3.00;1.63;;;17.40;69.00;;;;;;10449846;28;20136;-24
2023/03/29 00:34:53;;;;;;;5.15;1.90;;;17.40;69.40;;;;;;10450158;28;20044;-24
2023/03/29 00:39:55;;;;;;;2.33;1.48;;;17.30;69.10;;;;;;10452025;28;20505;-32
2023/03/29 00:45:00;;;;;;;1.90;1.20;;;16.10;79.70;;;;;;10457959;28;20084;-25
2023/03/29 00:50:08;;;;;;;2.70;1.23;;;17.20;71.60;;;;;;10451274;28;20107;-24
2023/03/29 00:55:15;;;;;;;3.53;1.35;;;17.70;69.20;;;;;;10449003;28;20126;-23
2023/03/29 01:00:21;;;;;;;1.92;1.48;;;17.10;71.60;;;;;;10451691;28;20102;-24
2023/03/29 01:05:31;;;;;;;2.35;1.50;;;16.50;72.20;;;;;;10440134;28;20064;-23
2023/03/29 01:10:38;;;;;;;2.17;1.20;;;17.00;73.30;;;;;;10445388;28;20137;-24
2023/03/29 01:15:43;;;;;;;5.32;2.45;;;17.20;70.20;;;;;;10450123;28;20465;-23
2023/03/29 01:21:05;;;;;;;2.78;1.30;;;17.20;65.50;;;;;;10445684;28;20494;-24
2023/03/29 01:26:19;;;;;;;2.28;1.40;;;16.90;73.50;;;;;;10453140;28;20055;-25
2023/03/29 01:31:26;;;;;;;1.58;1.20;;;15.80;81.00;;;;;;10462247;28;20049;-23
2023/03/29 01:36:33;;;;;;;1.98;1.30;;;17.20;71.10;;;;;;10450303;28;20044;-24
2023/03/29 01:41:43;;;;;;;6.18;1.42;;;16.90;70.60;;;;;;10446557;28;20052;-23
2023/03/29 01:46:49;;;;;;;2.80;1.73;;;16.30;75.50;;;;;;10446512;28;20427;-23
2023/03/29 01:51:57;;;;;;;3.90;1.20;;;15.50;81.20;;;;;;10469275;28;20072;-24
2023/03/29 01:57:03;;;;;;;1.58;0.88;;;16.20;77.50;;;;;;10468165;28;20137;-24
2023/03/29 02:02:11;;;;;;;2.50;1.40;;;17.10;71.30;;;;;;10454430;28;20052;-24
2023/03/29 02:07:15;;;;;;;3.60;1.40;;;16.40;75.10;;;;;;10442865;28;20462;-24
2023/03/29 02:12:18;;;;;;;2.30;1.38;;;16.80;74.40;;;;;;10441199;28;20614;-24
2023/03/29 02:17:23;;;;;;;1.58;0.85;;;17.20;70.90;;;;;;10437554;28;20484;-23
2023/03/29 02:22:31;;;;;;;2.22;1.17;;;17.60;68.10;;;;;;10450697;28;20088;-24
2023/03/29 02:27:33;;;;;;;4.28;1.98;;;17.10;71.20;;;;;;10442202;28;20483;-23
2023/03/29 02:32:48;;;;;;;7.87;2.80;;;17.00;63.30;;;;;;10446382;28;20046;-23
2023/03/29 02:37:54;;;;;;;2.30;1.23;;;16.30;72.90;;;;;;10453062;28;20487;-24
2023/03/29 02:42:57;;;;;;;1.80;1.00;;;17.10;71.40;;;;;;10451574;28;20139;-25
2023/03/29 02:48:05;;;;;;;2.67;1.35;;;16.90;69.30;;;;;;10455483;28;20041;-24
2023/03/29 02:53:12;;;;;;;1.73;1.10;;;17.10;71.30;;;;;;10467830;28;20048;-24
2023/03/29 02:58:14;;;;;;;1.55;0.93;;;17.10;71.20;;;;;;10469924;28;20052;-24
2023/03/29 03:03:17;;;;;;;3.50;1.92;;;17.10;70.80;;;;;;10454388;28;20059;-24
2023/03/29 03:08:20;;;;;;;3.00;2.05;;;17.30;68.90;;;;;;10451028;28;20083;-24
2023/03/29 03:13:21;;;;;;;2.80;1.30;;;17.10;64.00;;;;;;10454227;28;20460;-24
2023/03/29 03:18:25;;;;;;;3.33;1.48;;;17.50;68.90;;;;;;10456481;28;20164;-23
2023/03/29 03:23:27;;;;;;;1.02;0.82;;;17.60;66.70;;;;;;10457181;28;20087;-23
2023/03/29 03:28:29;;;;;;;2.83;1.48;;;17.80;66.50;;;;;;10451944;28;20041;-23
2023/03/29 03:33:32;;;;;;;3.30;1.17;;;17.60;67.80;;;;;;10452176;28;20124;-23
2023/03/29 03:38:35;;;;;;;1.10;0.80;;;16.40;73.50;;;;;;10452174;28;20048;-24
2023/03/29 03:43:37;;;;;;;1.98;1.10;;;17.50;68.10;;;;;;10460616;28;20084;-23
2023/03/29 03:48:40;;;;;;;1.83;1.42;;;17.70;66.90;;;;;;10475708;28;20143;-24
2023/03/29 03:53:42;;;;;;;3.75;2.40;;;16.30;66.90;;;;;;10454863;28;20128;-23
2023/03/29 03:58:44;;;;;;;1.80;1.03;;;16.10;74.50;;;;;;10455582;28;20118;-24
2023/03/29 04:03:48;;;;;;;1.48;1.02;;;17.20;69.50;;;;;;10452839;28;20052;-25
2023/03/29 04:08:50;;;;;;;1.38;0.82;;;17.60;66.90;;;;;;10468956;28;20045;-24
2023/03/29 04:13:52;;;;;;;5.40;1.83;;;17.50;67.30;;;;;;10454297;28;20049;-24
2023/03/29 04:18:55;;;;;;;1.20;0.85;;;17.10;68.90;;;;;;10453346;28;20140;-24
2023/03/29 04:23:57;;;;;;;1.55;0.93;;;17.50;67.80;;;;;;10464577;28;20500;-23
2023/03/29 04:28:59;;;;;;;1.90;0.97;;;17.70;67.30;;;;;;10445690;28;20140;-25
2023/03/29 04:34:02;;;;;;;2.97;1.50;;;18.00;66.30;;;;;;10451100;28;20049;-24
2023/03/29 04:39:06;;;;;;;3.10;0.90;;;17.30;65.50;;;;;;10449939;28;20068;-24
2023/03/29 04:44:08;;;;;;;1.23;0.80;;;18.20;65.60;;;;;;10455627;28;20082;-24
2023/03/29 04:49:11;;;;;;;0.90;0.80;;;18.30;64.90;;;;;;10462152;28;20529;-25
2023/03/29 04:54:13;;;;;;;1.77;1.23;;;18.40;64.40;;;;;;10450342;28;20502;-24
2023/03/29 04:59:15;;;;;;;3.42;1.98;;;18.20;65.70;;;;;;10449992;28;20080;-25
2023/03/29 05:04:18;;;;;;;2.83;1.20;;;18.20;65.60;;;;;;10463779;28;20088;-25
2023/03/29 05:09:20;;;;;;;0.80;0.80;;;18.20;66.30;;;;;;10449961;28;21084;-25
2023/03/29 05:14:25;;;;;;;;;;;18.10;67.20;;;;;;10448864;28;20056;-24
2023/03/29 05:19:28;;;;;;;2.17;0.90;;;18.40;65.70;;;;;;10453623;28;20013;-24
2023/03/29 05:24:30;;;;;;;2.28;1.77;;;18.30;65.80;;;;;;10446951;28;20139;-24
2023/03/29 05:29:32;;;;;;;4.40;1.23;;;15.40;85.80;;;;;;10458926;28;20080;-24
2023/03/29 05:34:35;;;;;;;4.43;3.23;;;15.90;83.50;;;;;;10450762;28;20472;-33
2023/03/29 05:39:37;;;;;;;4.18;1.88;;;15.60;81.70;;;;;;10453028;28;21043;-25
2023/03/29 05:44:39;;;;;;;5.53;2.67;;;14.60;91.40;;;;;;10452557;28;20136;-24
2023/03/29 05:49:42;;;;;;;3.80;1.93;;;14.50;91.80;;;;;;10458271;28;20134;-22
2023/03/29 05:54:44;;;;;;;8.15;3.75;;;13.80;93.40;;;;;;10445986;28;20048;-25
2023/03/29 05:59:46;;;;;;;9.03;4.83;;;14.20;94.40;;;;;;10450743;28;20139;-24
2023/03/29 06:15:30;;;;;;;14.10;5.80;;;13.10;99.80;;;;;;10511119;27;20183;-24
2023/03/29 06:20:32;;;;;;;25.85;6.45;;;13.20;99.90;;;;;;10488162;28;20055;-25
2023/03/29 06:25:35;;;;;;;19.90;4.67;;;12.00;99.90;;;;;;10487955;28;20041;-24
2023/03/29 06:30:38;;;;;;;18.38;4.03;;;13.30;99.90;;;;;;10493737;28;20045;-23
2023/03/29 06:35:42;;;;;;;17.52;5.07;;;12.90;99.90;;;;;;10489803;28;20510;-23
2023/03/29 06:40:44;;;;;;;18.33;6.80;;;12.70;99.90;;;;;;10487020;28;20409;-24
2023/03/29 06:45:47;;;;;;;10.03;5.50;;;12.80;99.90;;;;;;10465954;28;20063;-23
2023/03/29 06:50:49;;;;;;;7.20;3.85;;;12.80;99.90;;;;;;10477996;28;20497;-24
2023/03/29 06:55:51;;;;;;;10.10;4.23;;;12.70;99.90;;;;;;10469698;28;20049;-21
2023/03/29 07:01:00;;;;;;;15.40;6.45;;;13.00;99.90;;;;;;10477107;28;20479;-24
2023/03/29 07:06:08;;;;;;;34.75;9.52;;;13.20;99.90;;;;;;10485711;28;20130;-24
2023/03/29 07:11:11;;;;;;;16.40;7.07;;;12.60;99.90;;;;;;10480437;28;20061;-24
2023/03/29 07:16:15;;;;;;;20.05;7.15;;;12.20;99.90;;;;;;10487904;28;20110;-23
2023/03/29 07:21:17;;;;;;;23.10;9.98;;;13.20;99.90;;;;;;10480257;28;20135;-24
2023/03/29 07:26:19;;;;;;;20.57;7.50;;;12.20;99.90;;;;;;10453914;28;20440;-24
2023/03/29 07:31:22;;;;;;;23.75;8.60;;;12.20;99.90;;;;;;10455941;28;20495;-23
2023/03/29 07:36:25;;;;;;;25.05;8.10;;;12.90;99.90;;;;;;10453328;28;20045;-23
2023/03/29 07:41:26;;;;;;;28.40;11.55;;;12.50;99.90;;;;;;10451551;28;20094;-24
2023/03/29 07:46:30;;;;;;;23.03;10.13;;;12.40;99.90;;;;;;10448149;28;20052;-23
2023/03/29 07:51:31;;;;;;;17.08;7.25;;;12.00;99.90;;;;;;10454503;28;20076;-24
2023/03/29 07:56:33;;;;;;;23.83;8.95;;;12.80;99.90;;;;;;10453430;28;20052;-24
2023/03/29 08:01:37;;;;;;;18.80;9.02;;;12.60;99.90;;;;;;10453858;28;20148;-24
2023/03/29 08:06:38;;;;;;;19.58;7.15;;;12.90;99.90;;;;;;10455311;28;20111;-25
2023/03/29 08:11:41;;;;;;;24.17;9.43;;;13.10;99.90;;;;;;10461515;28;20057;-23
2023/03/29 08:16:44;;;;;;;11.20;5.13;;;13.20;99.90;;;;;;10461307;28;20056;-23
2023/03/29 08:21:46;;;;;;;12.95;5.00;;;12.80;99.90;;;;;;10446835;28;20467;-24
2023/03/29 08:26:48;;;;;;;10.53;4.20;;;14.90;99.60;;;;;;10461616;28;20140;-24
2023/03/29 08:31:51;;;;;;;7.73;4.50;;;16.20;93.90;;;;;;10454063;28;20049;-23
2023/03/29 08:36:54;;;;;;;20.70;10.30;;;14.80;99.90;;;;;;10460689;28;20045;-25
2023/03/29 08:42:08;;;;;;;18.38;6.85;;;14.50;99.90;;;;;;10473531;28;20044;-25
2023/03/29 08:47:19;;;;;;;8.15;4.03;;;14.70;99.90;;;;;;10449847;28;20095;-24
2023/03/29 08:52:27;;;;;;;7.25;3.33;;;15.20;98.10;;;;;;10447127;28;20056;-27
2023/03/29 08:57:32;;;;;;;9.90;5.47;;;17.60;91.00;;;;;;10459049;28;20527;-25
2023/03/29 09:02:36;;;;;;;19.23;8.32;;;15.60;95.30;;;;;;10447630;28;20498;-25
2023/03/29 09:07:38;;;;;;;21.73;8.50;;;14.00;99.90;;;;;;10448234;28;20077;-24
2023/03/29 09:12:53;;;;;;;30.00;9.68;;;13.40;99.90;;;;;;10453189;28;20053;-24
2023/03/29 09:18:05;;;;;;;26.63;9.93;;;13.40;99.90;;;;;;10450253;28;20124;-24
2023/03/29 09:23:27;;;;;;;34.88;11.45;;;13.10;99.90;;;;;;10452891;28;20041;-24
2023/03/29 09:28:37;;;;;;;24.00;9.45;;;13.50;99.90;;;;;;10469383;28;20040;-24
2023/03/29 09:33:43;;;;;;;13.60;8.18;;;12.90;99.90;;;;;;10450686;28;20412;-25
2023/03/29 09:38:52;;;;;;;19.08;7.57;;;12.80;99.90;;;;;;10461909;28;20048;-23
2023/03/29 09:43:56;;;;;;;12.80;6.60;;;13.10;99.90;;;;;;10460026;28;20048;-28
2023/03/29 09:49:01;;;;;;;21.95;7.45;;;13.90;99.90;;;;;;10442537;28;20044;-24
2023/03/29 09:54:03;;;;;;;12.55;6.90;;;15.80;98.80;;;;;;10460190;28;20159;-25
2023/03/29 09:59:06;;;;;;;12.80;6.67;;;13.10;99.90;;;;;;10464306;28;20103;-24
2023/03/29 10:04:10;;;;;;;13.80;6.85;;;14.40;99.90;;;;;;10454978;28;20494;-26
2023/03/29 10:09:16;;;;;;;12.30;5.57;;;13.10;99.90;;;;;;10449065;28;20051;-23
2023/03/29 10:14:21;;;;;;;7.05;4.15;;;15.00;99.90;;;;;;10464009;28;20072;-25
2023/03/29 10:19:29;;;;;;;15.75;7.70;;;14.90;99.90;;;;;;10455018;28;20056;-25
2023/03/29 10:24:31;;;;;;;10.18;4.95;;;14.60;99.90;;;;;;10446286;28;20052;-24
2023/03/29 10:29:38;;;;;;;14.03;6.00;;;14.80;99.90;;;;;;10448528;28;20045;-25
2023/03/29 10:34:41;;;;;;;5.70;3.40;;;14.80;99.90;;;;;;10457429;28;20132;-27
2023/03/29 10:39:43;;;;;;;12.77;5.53;;;15.90;98.50;;;;;;10473855;28;20059;-26
2023/03/29 10:44:53;;;;;;;14.33;7.03;;;16.80;92.90;;;;;;10456568;28;20073;-25
2023/03/29 10:49:58;;;;;;;10.23;4.50;;;15.20;99.90;;;;;;10440656;28;20581;-25
2023/03/29 10:55:00;;;;;;;13.38;6.18;;;15.80;97.10;;;;;;10443245;28;20548;-27
2023/03/29 11:00:06;;;;;;;15.55;6.38;;;14.80;99.90;;;;;;10444336;28;20048;-27
2023/03/29 11:05:24;;;;;;;11.68;6.00;;;15.50;99.50;;;;;;10461551;28;20818;-24
2023/03/29 11:10:37;;;;;;;9.65;5.93;;;14.60;99.90;;;;;;10453697;28;20075;-25
2023/03/29 11:15:50;;;;;;;9.40;5.43;;;14.10;99.90;;;;;;10471869;28;20059;-27
2023/03/29 11:21:00;;;;;;;9.57;6.20;;;14.00;99.90;;;;;;10474874;28;20081;-25
2023/03/29 11:26:12;;;;;;;16.70;7.18;;;13.50;99.90;;;;;;10467199;28;20489;-25
2023/03/29 11:31:20;;;;;;;13.57;6.95;;;13.40;99.90;;;;;;10446833;28;20044;-24
2023/03/29 11:36:30;;;;;;;12.23;4.32;;;13.80;99.90;;;;;;10450858;28;20045;-24
2023/03/29 11:41:37;;;;;;;7.13;4.80;;;14.30;99.90;;;;;;10458721;28;20755;-25
2023/03/29 11:46:43;;;;;;;7.43;4.05;;;14.60;99.90;;;;;;10474580;28;20516;-28
2023/03/29 11:51:54;;;;;;;7.90;4.57;;;14.10;99.90;;;;;;10462720;28;20132;-22
2023/03/29 11:57:00;;;;;;;17.33;7.00;;;14.40;99.90;;;;;;10470550;28;20049;-25
2023/03/29 12:02:09;;;;;;;16.55;7.53;;;14.70;99.90;;;;;;10450992;28;20049;-26
2023/03/29 12:07:17;;;;;;;6.15;4.40;;;13.30;99.90;;;;;;10450463;28;20049;-26
2023/03/29 12:12:24;;;;;;;10.52;5.05;;;14.90;99.90;;;;;;10457769;28;20080;-27
2023/03/29 12:17:31;;;;;;;11.02;5.47;;;15.50;99.90;;;;;;10470904;28;20045;-25
2023/03/29 12:22:37;;;;;;;10.77;4.68;;;16.50;97.20;;;;;;10457766;28;20127;-26
2023/03/29 12:27:48;;;;;;;5.97;2.90;;;16.00;98.70;;;;;;10457921;28;20386;-26
2023/03/29 12:33:18;;;;;;;15.43;7.38;;;16.90;93.20;;;;;;10454314;28;20114;-25
2023/03/29 12:38:22;;;;;;;11.15;6.03;;;16.30;97.70;;;;;;10458813;28;20131;-24
2023/03/29 12:43:27;;;;;;;5.50;3.15;;;16.20;99.10;;;;;;10469094;28;20048;-25
2023/03/29 12:48:30;;;;;;;8.80;3.65;;;16.90;93.80;;;;;;10453084;28;20045;-25
2023/03/29 12:53:35;;;;;;;8.93;3.92;;;17.20;94.40;;;;;;10453975;28;20048;-25
2023/03/29 12:58:43;;;;;;;9.80;3.45;;;16.40;98.90;;;;;;10464765;28;20052;-24
2023/03/29 13:03:50;;;;;;;5.45;3.10;;;17.20;92.40;;;;;;10454429;28;20108;-23
2023/03/29 13:09:00;;;;;;;4.95;2.42;;;17.00;95.50;;;;;;10445458;28;20789;-25
2023/03/29 13:14:11;;;;;;;7.60;4.60;;;16.40;96.20;;;;;;10453832;28;20161;-26
2023/03/29 13:19:27;;;;;;;7.25;3.22;;;16.40;98.90;;;;;;10458156;28;20068;-26
2023/03/29 13:24:43;;;;;;;8.35;3.40;;;17.00;95.30;;;;;;10456484;28;20041;-26
2023/03/29 13:29:56;;;;;;;4.63;2.13;;;17.80;89.90;;;;;;10464332;28;20068;-25
2023/03/29 13:35:05;;;;;;;4.65;1.63;;;18.10;86.90;;;;;;10464215;28;20132;-25
2023/03/29 13:40:31;;;;;;;9.05;4.43;;;18.50;85.10;;;;;;10472008;28;20139;-25
2023/03/29 13:45:34;;;;;;;3.30;1.30;;;17.90;92.50;;;;;;10448639;28;20131;-27
2023/03/29 13:50:39;;;;;;;9.23;3.80;;;18.30;89.30;;;;;;10451403;28;20072;-24
2023/03/29 13:55:48;;;;;;;5.40;1.60;;;18.70;86.70;;;;;;10455010;28;20052;-24
2023/03/29 14:00:54;;;;;;;6.95;3.58;;;19.10;80.10;;;;;;10458093;28;20424;-24
2023/03/29 14:05:59;;;;;;;4.03;1.75;;;19.10;80.50;;;;;;10445739;28;20099;-24
2023/03/29 14:11:05;;;;;;;2.38;0.90;;;19.40;77.70;;;;;;10438982;28;20057;-25
2023/03/29 14:16:11;;;;;;;3.13;1.20;;;19.60;76.90;;;;;;10437317;28;21420;-26
2023/03/29 14:21:14;;;;;;;2.67;1.58;;;19.80;75.00;;;;;;10438431;28;20124;-26
2023/03/29 14:26:19;;;;;;;4.50;1.25;;;19.80;75.70;;;;;;10432421;28;20316;-25
2023/03/29 14:31:23;;;;;;;8.98;2.67;;;19.90;75.90;;;;;;10442869;28;20061;-25
2023/03/29 14:36:26;;;;;;;6.40;1.77;;;19.90;75.30;;;;;;10450803;28;20044;-25
2023/03/29 14:41:31;;;;;;;10.55;4.97;;;19.90;75.10;;;;;;10453724;28;20049;-24
2023/03/29 14:46:33;;;;;;;8.52;1.88;;;18.70;85.60;;;;;;10457112;28;20052;-26
2023/03/29 14:51:35;;;;;;;8.35;4.15;;;19.50;80.20;;;;;;10452870;28;20049;-25
2023/03/29 14:56:39;;;;;;;3.83;1.90;;;19.40;83.30;;;;;;10450649;28;20134;-25
2023/03/29 15:01:44;;;;;;;4.72;2.15;;;19.60;78.70;;;;;;10448419;28;20128;-24
2023/03/29 15:06:48;;;;;;;3.42;1.30;;;20.10;75.60;;;;;;10449152;28;20517;-25
2023/03/29 15:11:56;;;;;;;2.00;1.20;;;20.20;75.40;;;;;;10451086;28;20064;-23
2023/03/29 15:17:02;;;;;;;2.78;1.85;;;20.30;74.00;;;;;;10450487;28;20497;-25
2023/03/29 15:22:09;;;;;;;4.22;1.90;;;20.30;74.10;;;;;;10459385;28;20128;-24
2023/03/29 15:27:15;;;;;;;3.75;1.23;;;20.30;73.90;;;;;;10445529;28;20044;-24
2023/03/29 15:32:21;;;;;;;4.25;1.10;;;20.50;73.40;;;;;;10450493;28;20156;-25
2023/03/29 15:37:23;;;;;;;3.67;1.33;;;20.40;73.40;;;;;;10451405;28;20454;-24
2023/03/29 15:42:26;;;;;;;10.43;1.52;;;20.40;73.70;;;;;;10454825;28;20041;-24
2023/03/29 15:47:28;;;;;;;2.78;1.20;;;20.50;74.20;;;;;;10465785;28;20048;-24
2023/03/29 15:52:30;;;;;;;4.30;1.52;;;20.50;73.80;;;;;;10458786;28;20048;-25
2023/03/29 15:57:34;;;;;;;2.70;1.40;;;20.40;74.60;;;;;;10450056;28;20631;-24
2023/03/29 16:02:35;;;;;;;3.70;1.35;;;20.40;75.10;;;;;;10453514;28;20183;-24
2023/03/29 16:07:37;;;;;;;3.85;1.63;;;20.40;75.80;;;;;;10465446;28;20504;-24
2023/03/29 16:12:40;;;;;;;3.00;1.20;;;20.40;77.10;;;;;;10447636;28;20072;-26
2023/03/29 16:17:42;;;;;;;3.25;1.20;;;20.40;75.80;;;;;;10454215;28;20056;-24
2023/03/29 16:22:44;;;;;;;1.80;1.13;;;20.30;77.40;;;;;;10459345;28;20133;-29
2023/03/29 16:27:49;;;;;;;6.18;1.23;;;20.50;75.30;;;;;;10454582;28;20409;-24
2023/03/29 16:32:51;;;;;;;2.63;1.05;;;20.50;75.70;;;;;;10448529;28;20049;-26
2023/03/29 16:37:53;;;;;;;3.45;1.13;;;20.40;77.20;;;;;;10448835;28;20098;-24
2023/03/29 16:42:56;;;;;;;4.60;1.60;;;20.60;75.30;;;;;;10449819;28;20481;-26
2023/03/29 16:47:58;;;;;;;5.50;1.25;;;20.60;75.50;;;;;;10449835;28;20045;-24
2023/03/29 16:53:00;;;;;;;6.80;1.35;;;20.60;76.00;;;;;;10447190;28;20077;-24
2023/03/29 16:58:04;;;;;;;5.40;1.92;;;20.60;76.70;;;;;;10443209;28;20053;-25
2023/03/29 17:03:06;;;;;;;6.13;1.52;;;20.60;77.10;;;;;;10455022;28;20110;-25
2023/03/29 17:08:09;;;;;;;5.68;1.60;;;20.50;76.40;;;;;;10446765;28;20529;-27
2023/03/29 17:13:12;;;;;;;10.50;2.30;;;20.60;76.30;;;;;;10439289;28;20087;-23
2023/03/29 17:18:14;;;;;;;7.13;1.30;;;20.60;76.40;;;;;;10450480;28;20069;-26
2023/03/29 17:23:17;;;;;;;7.82;1.75;;;20.60;78.90;;;;;;10448388;28;20072;-24
2023/03/29 17:28:20;;;;;;;6.78;1.83;;;20.30;79.60;;;;;;10442401;28;20731;-25
2023/03/29 17:33:24;;;;;;;7.57;1.65;;;20.20;82.00;;;;;;10448220;28;20091;-25
2023/03/29 17:38:29;;;;;;;2.80;1.83;;;20.10;84.30;;;;;;10449695;28;20503;-24
2023/03/29 17:43:32;;;;;;;10.82;2.00;;;19.80;86.60;;;;;;10454073;28;20383;-25
2023/03/29 17:48:34;;;;;;;7.70;2.15;;;19.90;84.20;;;;;;10446245;28;20084;-26
2023/03/29 17:53:36;;;;;;;4.10;1.40;;;20.00;86.20;;;;;;10445202;28;20542;-25
2023/03/29 17:58:39;;;;;;;5.38;1.80;;;20.00;83.30;;;;;;10443986;28;20110;-24
2023/03/29 18:03:41;;;;;;;5.88;1.88;;;19.90;86.30;;;;;;10447019;28;20044;-27
2023/03/29 18:08:44;;;;;;;;;;;20.10;84.50;;;;;;10447560;28;20485;-25
2023/03/29 18:13:48;;;;;;;9.20;2.42;;;20.00;84.80;;;;;;10449952;28;19947;-25
2023/03/29 18:18:50;;;;;;;4.47;2.97;;;19.90;88.50;;;;;;10446571;28;20126;-23
2023/03/29 18:23:52;;;;;;;9.82;3.28;;;19.70;90.20;;;;;;10462727;28;20049;-25
2023/03/29 18:28:55;;;;;;;10.13;2.15;;;19.60;90.00;;;;;;10446521;28;20051;-25
2023/03/29 18:33:57;;;;;;;3.15;2.03;;;19.60;89.30;;;;;;10449357;28;20405;-24
2023/03/29 18:39:04;;;;;;;4.97;1.77;;;19.50;90.20;;;;;;10467980;28;20447;-25
2023/03/29 18:44:07;;;;;;;9.93;2.67;;;20.20;84.30;;;;;;10460406;28;20462;-25
2023/03/29 18:49:11;;;;;;;4.55;2.30;;;20.30;83.20;;;;;;10455204;28;20494;-25
2023/03/29 18:54:14;;;;;;;4.07;1.50;;;20.20;84.30;;;;;;10465482;28;20045;-24
2023/03/29 18:59:17;;;;;;;2.70;1.20;;;20.40;82.10;;;;;;10466398;28;20379;-27
2023/03/29 19:04:19;;;;;;;9.50;1.70;;;20.50;81.50;;;;;;10445909;28;20134;-25
2023/03/29 19:09:21;;;;;;;;;;;20.50;81.70;;;;;;10439925;28;20052;-28
2023/03/29 19:14:24;;;;;;;5.87;2.43;;;20.50;82.60;;;;;;10438119;28;19928;-25
2023/03/29 19:19:27;;;;;;;5.85;1.80;;;20.50;82.30;;;;;;10436742;28;20447;-25
2023/03/29 19:24:29;;;;;;;7.50;1.95;;;20.30;82.80;;;;;;10444126;28;20483;-25
2023/03/29 19:29:36;;;;;;;6.38;1.85;;;20.40;82.20;;;;;;10447484;28;20079;-26
2023/03/29 19:34:38;;;;;;;5.10;1.63;;;20.50;81.00;;;;;;10453024;28;20564;-25
2023/03/29 19:39:40;;;;;;;7.25;1.98;;;20.50;80.90;;;;;;10464647;28;20106;-24
2023/03/29 19:44:44;;;;;;;7.53;2.67;;;20.50;81.10;;;;;;10449236;28;20489;-26
2023/03/29 19:49:46;;;;;;;4.13;1.23;;;20.40;81.20;;;;;;10447428;28;20524;-25
2023/03/29 19:54:47;;;;;;;6.10;1.80;;;20.40;82.30;;;;;;10452331;28;20056;-26
2023/03/29 19:59:51;;;;;;;10.45;1.75;;;20.40;81.50;;;;;;10451311;28;20107;-24
2023/03/29 20:04:53;;;;;;;4.93;1.42;;;20.40;81.90;;;;;;10452610;28;20053;-24
2023/03/29 20:09:56;;;;;;;4.05;1.48;;;20.30;81.80;;;;;;10456151;28;20056;-24
2023/03/29 20:14:59;;;;;;;5.05;1.45;;;20.40;81.80;;;;;;10456772;28;20494;-26
2023/03/29 20:20:01;;;;;;;6.38;1.83;;;20.40;81.20;;;;;;10454659;28;20059;-25
2023/03/29 20:25:03;;;;;;;;;;;20.40;81.30;;;;;;10467032;28;20107;-25
2023/03/29 20:30:08;;;;;;;4.03;1.60;;;20.40;82.60;;;;;;10452224;28;19956;-26
2023/03/29 20:35:13;;;;;;;6.72;1.52;;;20.40;80.90;;;;;;10449135;28;20056;-24
2023/03/29 20:40:15;;;;;;;5.22;1.35;;;20.40;81.10;;;;;;10455158;28;20040;-25
2023/03/29 20:45:18;;;;;;;;;;;20.40;80.90;;;;;;10458198;28;20049;-26
2023/03/29 20:50:24;;;;;;;3.75;1.33;;;20.40;81.10;;;;;;10453170;28;20023;-28
2023/03/29 20:55:29;;;;;;;8.45;1.52;;;20.40;81.20;;;;;;10457622;28;20403;-24
2023/03/29 21:00:34;;;;;;;6.07;1.50;;;20.30;81.90;;;;;;10462325;28;20095;-24
2023/03/29 21:05:36;;;;;;;3.38;1.00;;;20.30;81.30;;;;;;10458943;28;20401;-25
2023/03/29 21:10:41;;;;;;;3.50;1.42;;;20.30;82.00;;;;;;10456517;28;20390;-25
2023/03/29 21:15:45;;;;;;;4.45;1.25;;;20.10;83.20;;;;;;10477183;28;20142;-25
2023/03/29 21:20:48;;;;;;;5.13;1.33;;;19.90;83.70;;;;;;10452293;28;20143;-25
2023/03/29 21:25:50;;;;;;;4.88;1.20;;;20.00;83.00;;;;;;10460634;28;20041;-25
2023/03/29 21:30:53;;;;;;;3.20;1.33;;;19.50;86.70;;;;;;10451310;28;20742;-25
2023/03/29 21:35:55;;;;;;;7.25;2.05;;;19.60;86.90;;;;;;10449055;28;20076;-26
2023/03/29 21:40:58;;;;;;;12.70;3.42;;;18.80;90.70;;;;;;10456165;28;20132;-23
2023/03/29 21:46:01;;;;;;;5.70;2.22;;;18.00;92.70;;;;;;10427673;28;20070;-25
2023/03/29 21:51:04;;;;;;;3.40;1.83;;;17.40;96.70;;;;;;10453047;28;20145;-24
2023/03/29 21:56:07;;;;;;;;;;;17.70;95.70;;;;;;10446903;28;20057;-26
2023/03/29 22:01:10;;;;;;;3.90;1.80;;;17.50;96.50;;;;;;10447615;28;19924;-25
2023/03/29 22:06:13;;;;;;;7.53;1.95;;;17.90;95.00;;;;;;10443293;28;20185;-26
2023/03/29 22:11:16;;;;;;;5.07;2.40;;;18.10;94.40;;;;;;10450212;28;20128;-24
2023/03/29 22:16:19;;;;;;;;;;;18.00;94.50;;;;;;10462814;28;20118;-26
2023/03/29 22:21:22;;;;;;;16.55;3.78;;;16.80;97.50;;;;;;10459973;28;19956;-24
2023/03/29 22:26:26;;;;;;;11.38;3.28;;;17.20;96.80;;;;;;10445905;28;20136;-26
2023/03/29 22:31:31;;;;;;;6.97;1.95;;;17.00;97.60;;;;;;10456368;28;20176;-24
2023/03/29 22:36:35;;;;;;;4.40;1.98;;;16.40;99.90;;;;;;10468442;28;20139;-25
2023/03/29 22:41:37;;;;;;;7.70;3.55;;;17.00;98.70;;;;;;10452262;28;20110;-24
2023/03/29 22:46:41;;;;;;;4.17;2.70;;;16.70;98.40;;;;;;10452417;28;20049;-23
2023/03/29 22:51:43;;;;;;;8.43;2.30;;;16.70;97.40;;;;;;10460586;28;20078;-25
2023/03/29 22:56:44;;;;;;;6.23;3.07;;;16.70;99.50;;;;;;10465245;28;20079;-26
2023/03/29 23:01:48;;;;;;;4.33;2.10;;;17.40;94.20;;;;;;10473202;28;20143;-25
2023/03/29 23:06:51;;;;;;;8.55;3.28;;;17.00;96.60;;;;;;10460412;28;20049;-27
2023/03/29 23:11:53;;;;;;;4.75;2.75;;;16.30;97.80;;;;;;10470862;28;20512;-23
2023/03/29 23:16:57;;;;;;;11.80;4.03;;;16.00;99.90;;;;;;10476999;28;20138;-24
2023/03/29 23:21:58;;;;;;;7.70;3.05;;;15.90;99.90;;;;;;10454519;28;20476;-24
2023/03/29 23:27:01;;;;;;;6.93;2.57;;;15.60;99.90;;;;;;10453160;28;20132;-24
2023/03/29 23:32:05;;;;;;;6.07;2.65;;;15.40;99.70;;;;;;10454444;28;20106;-25
2023/03/29 23:37:07;;;;;;;14.00;2.20;;;15.60;97.90;;;;;;10463882;28;20131;-25
2023/03/29 23:42:09;;;;;;;8.10;2.47;;;15.10;99.00;;;;;;10480626;28;20064;-25
2023/03/29 23:47:12;;;;;;;13.38;2.75;;;15.20;99.40;;;;;;10458027;28;20118;-25
2023/03/29 23:52:14;;;;;;;17.02;2.90;;;15.10;98.50;;;;;;10458299;28;20045;-25
2023/03/29 23:57:16;;;;;;;10.45;2.33;;;15.00;99.90;;;;;;10453009;28;20049;-25
